createdAt,value
2018-01-18T00:02:02.900Z,89.30
2018-01-18T00:04:30.433Z,89.50
2018-01-18T00:06:58.002Z,89.40
2018-01-18T00:09:25.526Z,89.70
2018-01-18T00:11:53.101Z,89.70
2018-01-18T00:14:20.631Z,89.60
2018-01-18T00:16:48.962Z,89.70
2018-01-18T00:19:16.491Z,89.70
2018-01-18T00:21:44.065Z,89.70
2018-01-18T00:24:11.644Z,89.70
2018-01-18T00:26:39.207Z,89.80
2018-01-18T00:29:06.730Z,90.00
2018-01-18T00:31:34.301Z,90.00
2018-01-18T00:34:01.841Z,90.00
2018-01-18T00:36:29.415Z,89.90
2018-01-18T00:38:56.949Z,90.30
2018-01-18T00:41:25.282Z,90.00
2018-01-18T00:43:52.797Z,90.00
2018-01-18T00:46:20.372Z,90.10
2018-01-18T00:48:47.899Z,90.10
2018-01-18T00:51:16.229Z,90.10
2018-01-18T00:53:43.760Z,90.10
2018-01-18T00:56:11.325Z,90.10
2018-01-18T00:58:38.855Z,90.10
2018-01-18T01:01:07.199Z,90.20
2018-01-18T01:03:34.732Z,90.10
2018-01-18T01:06:02.303Z,90.20
2018-01-18T01:08:29.827Z,90.20
2018-01-18T01:10:57.403Z,90.10
2018-01-18T01:13:24.930Z,90.10
2018-01-18T01:15:53.260Z,90.20
2018-01-18T01:18:20.791Z,90.10
2018-01-18T01:20:48.365Z,90.10
2018-01-18T01:23:15.896Z,90.10
2018-01-18T01:25:44.232Z,90.10
2018-01-18T01:28:11.760Z,90.10
2018-01-18T01:30:39.332Z,90.10
2018-01-18T01:33:06.898Z,90.10
2018-01-18T01:35:34.426Z,90.20
2018-01-18T01:38:02.017Z,90.20
2018-01-18T01:40:29.547Z,90.20
2018-01-18T01:42:57.116Z,90.20
2018-01-18T01:45:24.643Z,90.20
2018-01-18T01:47:52.972Z,90.20
2018-01-18T01:50:20.499Z,90.10
2018-01-18T01:52:48.074Z,90.10
2018-01-18T01:55:15.596Z,90.20
2018-01-18T01:57:43.952Z,90.10
2018-01-18T02:00:11.484Z,90.10
2018-01-18T02:02:39.055Z,90.10
2018-01-18T02:05:06.598Z,90.10
2018-01-18T02:07:34.161Z,90.10
2018-01-18T02:10:01.686Z,90.10
2018-01-18T02:12:29.256Z,90.10
2018-01-18T02:14:56.788Z,90.20
2018-01-18T02:17:25.120Z,90.10
2018-01-18T02:19:52.643Z,90.10
2018-01-18T02:22:20.222Z,90.10
2018-01-18T02:24:47.751Z,90.10
2018-01-18T02:27:16.088Z,90.20
2018-01-18T02:29:43.615Z,90.20
2018-01-18T02:32:11.192Z,90.20
2018-01-18T02:34:38.715Z,90.20
2018-01-18T02:37:06.290Z,90.10
2018-01-18T02:39:33.818Z,90.20
2018-01-18T02:42:02.151Z,90.20
2018-01-18T02:44:29.679Z,90.20
2018-01-18T02:46:58.017Z,90.20
2018-01-18T02:49:25.535Z,90.20
2018-01-18T02:51:53.100Z,90.20
2018-01-18T02:54:20.641Z,90.20
2018-01-18T02:56:48.211Z,90.10
2018-01-18T02:59:15.736Z,90.10
2018-01-18T03:01:44.070Z,90.20
2018-01-18T03:04:11.600Z,90.20
2018-01-18T03:06:39.175Z,90.20
2018-01-18T03:09:06.713Z,90.20
2018-01-18T03:11:34.286Z,90.30
2018-01-18T03:14:01.816Z,90.30
2018-01-18T03:16:29.386Z,90.20
2018-01-18T03:18:56.911Z,90.20
2018-01-18T03:21:24.486Z,90.20
2018-01-18T03:23:52.775Z,90.30
2018-01-18T03:26:20.343Z,90.20
2018-01-18T03:28:47.866Z,90.20
2018-01-18T03:31:15.437Z,90.20
2018-01-18T03:33:43.740Z,90.10
2018-01-18T03:36:11.312Z,90.10
2018-01-18T03:38:38.837Z,90.20
2018-01-18T03:41:07.168Z,90.30
2018-01-18T03:43:34.692Z,90.30
2018-01-18T03:46:02.265Z,90.20
2018-01-18T03:48:29.796Z,90.20
2018-01-18T03:50:58.126Z,90.20
2018-01-18T03:53:25.660Z,90.60
2018-01-18T03:55:53.223Z,90.20
2018-01-18T03:58:20.752Z,90.20
2018-01-18T04:00:49.095Z,90.30
2018-01-18T04:03:17.385Z,90.30
2018-01-18T04:05:44.951Z,90.30
2018-01-18T04:08:13.272Z,90.40
2018-01-18T04:10:40.800Z,90.30
2018-01-18T04:13:09.126Z,90.40
2018-01-18T04:15:36.694Z,90.30
2018-01-18T04:18:04.227Z,90.40
2018-01-18T04:20:31.796Z,90.30
2018-01-18T04:22:59.323Z,90.30
2018-01-18T04:25:27.660Z,90.40
2018-01-18T04:27:55.197Z,90.40
2018-01-18T04:30:22.768Z,90.40
2018-01-18T04:32:50.302Z,90.40
2018-01-18T04:35:17.866Z,90.40
2018-01-18T04:37:45.390Z,90.40
2018-01-18T04:40:13.724Z,90.40
2018-01-18T04:42:41.260Z,90.40
2018-01-18T04:45:08.831Z,90.40
2018-01-18T04:47:36.355Z,90.50
2018-01-18T04:50:03.927Z,90.40
2018-01-18T04:52:31.455Z,90.50
2018-01-18T04:54:59.790Z,90.60
2018-01-18T04:57:27.318Z,90.50
2018-01-18T04:59:54.882Z,90.40
2018-01-18T05:02:22.411Z,90.50
2018-01-18T05:04:50.788Z,90.50
2018-01-18T05:07:18.298Z,90.40
2018-01-18T05:09:45.951Z,90.50
2018-01-18T05:12:13.524Z,90.60
2018-01-18T05:14:41.058Z,90.80
2018-01-18T05:17:08.627Z,90.60
2018-01-18T05:19:36.152Z,90.80
2018-01-18T05:22:04.491Z,90.70
2018-01-18T05:24:32.033Z,90.70
2018-01-18T05:26:59.599Z,90.60
2018-01-18T05:29:27.255Z,90.60
2018-01-18T05:31:54.806Z,90.70
2018-01-18T05:34:22.381Z,90.80
2018-01-18T05:36:49.907Z,90.80
2018-01-18T05:39:17.436Z,90.70
2018-01-18T05:41:45.015Z,90.70
2018-01-18T05:44:13.306Z,90.70
2018-01-18T05:46:40.871Z,90.60
2018-01-18T05:49:08.462Z,90.90
2018-01-18T05:51:36.093Z,90.80
2018-01-18T05:54:03.684Z,91.00
2018-01-18T05:56:31.256Z,90.90
2018-01-18T05:58:58.780Z,90.90
2018-01-18T06:01:26.351Z,91.10
2018-01-18T06:03:53.878Z,91.00
2018-01-18T06:06:21.454Z,91.10
2018-01-18T06:08:48.984Z,91.10
2018-01-18T06:11:17.310Z,91.10
2018-01-18T06:13:44.842Z,91.00
2018-01-18T06:16:12.416Z,91.20
2018-01-18T06:18:39.943Z,91.10
2018-01-18T06:21:08.278Z,91.10
2018-01-18T06:23:35.808Z,91.10
2018-01-18T06:26:03.379Z,91.30
2018-01-18T06:28:30.908Z,91.20
2018-01-18T06:30:58.484Z,91.30
2018-01-18T06:33:26.011Z,91.20
2018-01-18T06:35:54.342Z,91.30
2018-01-18T06:38:21.873Z,91.20
2018-01-18T06:40:49.440Z,91.30
2018-01-18T06:43:16.967Z,91.30
2018-01-18T06:45:45.303Z,91.30
2018-01-18T06:48:12.832Z,91.20
2018-01-18T06:50:40.403Z,91.30
2018-01-18T06:53:07.931Z,91.40
2018-01-18T06:55:35.528Z,91.30
2018-01-18T06:58:03.055Z,91.40
2018-01-18T07:00:31.391Z,91.40
2018-01-18T07:02:58.920Z,91.40
2018-01-18T07:05:26.493Z,91.40
2018-01-18T07:07:54.014Z,91.30
2018-01-18T07:10:21.589Z,91.40
2018-01-18T07:12:49.121Z,91.40
2018-01-18T07:15:17.458Z,91.30
2018-01-18T07:17:45.022Z,91.30
2018-01-18T07:20:12.595Z,91.30
2018-01-18T07:22:40.128Z,91.40
2018-01-18T07:25:07.707Z,91.40
2018-01-18T07:27:35.245Z,91.40
2018-01-18T07:30:02.824Z,91.40
2018-01-18T07:32:30.351Z,91.50
2018-01-18T07:34:57.929Z,91.40
2018-01-18T07:37:25.462Z,91.50
2018-01-18T07:39:53.041Z,91.40
2018-01-18T07:42:20.571Z,91.30
2018-01-18T07:44:48.142Z,91.40
2018-01-18T07:47:15.674Z,91.40
2018-01-18T07:49:44.009Z,91.20
2018-01-18T07:54:33.813Z,91.30
2018-01-18T07:57:21.119Z,91.30
2018-01-18T07:59:48.691Z,91.30
2018-01-18T08:02:16.244Z,91.30
2018-01-18T08:04:43.833Z,91.20
2018-01-18T08:07:12.129Z,91.10
2018-01-18T08:09:40.464Z,90.80
2018-01-18T08:12:07.983Z,90.80
2018-01-18T08:14:35.551Z,90.70
2018-01-18T08:17:03.104Z,91.00
2018-01-18T08:19:30.683Z,84.80
2018-01-18T08:21:58.207Z,86.30
2018-01-18T08:24:26.568Z,89.10
2018-01-18T08:26:54.095Z,89.10
2018-01-18T08:29:21.664Z,89.20
2018-01-18T08:31:49.192Z,89.60
2018-01-18T08:34:16.768Z,89.90
2018-01-18T08:36:44.409Z,90.00
2018-01-18T08:39:11.983Z,90.20
2018-01-18T08:41:39.513Z,90.20
2018-01-18T08:44:07.087Z,90.30
2018-01-18T08:46:34.615Z,90.30
2018-01-18T08:49:02.957Z,90.40
2018-01-18T08:51:30.488Z,90.40
2018-01-18T08:53:58.068Z,90.40
2018-01-18T08:56:25.597Z,90.40
2018-01-18T08:58:53.168Z,90.40
2018-01-18T09:01:20.687Z,90.50
2018-01-18T09:03:49.015Z,90.50
2018-01-18T09:06:16.543Z,90.50
2018-01-18T09:08:44.113Z,90.50
2018-01-18T09:11:11.644Z,90.50
2018-01-18T09:13:39.979Z,90.60
2018-01-18T09:16:07.509Z,90.50
2018-01-18T09:18:35.088Z,90.40
2018-01-18T09:21:02.615Z,90.40
2018-01-18T09:23:30.188Z,90.40
2018-01-18T09:25:57.716Z,90.40
2018-01-18T09:28:26.045Z,90.40
2018-01-18T09:30:53.570Z,90.40
2018-01-18T09:33:21.137Z,90.40
2018-01-18T09:35:48.667Z,90.30
2018-01-18T09:38:17.014Z,90.40
2018-01-18T09:40:45.315Z,90.50
2018-01-18T09:43:13.650Z,90.50
2018-01-18T09:45:41.179Z,90.50
2018-01-18T09:48:08.740Z,90.40
2018-01-18T09:50:36.268Z,90.50
2018-01-18T09:53:03.833Z,90.60
2018-01-18T09:55:32.123Z,90.50
2018-01-18T09:58:00.456Z,90.30
2018-01-18T10:00:27.980Z,90.30
2018-01-18T10:02:55.551Z,90.40
2018-01-18T10:05:23.076Z,90.50
2018-01-18T10:07:51.416Z,90.40
2018-01-18T10:10:18.947Z,90.40
2018-01-18T10:12:46.512Z,90.40
2018-01-18T10:15:14.043Z,90.50
2018-01-18T10:17:41.620Z,90.50
2018-01-18T10:20:09.147Z,90.60
2018-01-18T10:22:37.481Z,90.50
2018-01-18T10:25:05.024Z,90.50
2018-01-18T10:27:32.596Z,90.50
2018-01-18T10:30:00.136Z,90.60
2018-01-18T10:32:27.715Z,90.40
2018-01-18T10:34:55.250Z,90.60
2018-01-18T10:37:22.816Z,90.60
2018-01-18T10:39:50.348Z,90.30
2018-01-18T10:42:18.674Z,89.40
2018-01-18T10:44:46.209Z,89.40
2018-01-18T10:47:13.804Z,89.80
2018-01-18T10:49:41.340Z,90.30
2018-01-18T10:52:08.909Z,89.90
2018-01-18T10:54:36.448Z,89.60
2018-01-18T10:57:04.019Z,89.90
2018-01-18T10:59:31.550Z,89.70
2018-01-18T11:01:59.115Z,89.40
2018-01-18T11:04:26.649Z,88.20
2018-01-18T11:06:54.240Z,88.50
2018-01-18T11:09:21.775Z,88.40
2018-01-18T11:11:50.112Z,88.60
2018-01-18T11:14:17.635Z,88.60
2018-01-18T11:16:45.226Z,88.80
2018-01-18T11:19:12.748Z,90.20
2018-01-18T11:21:40.315Z,89.50
2018-01-18T11:24:07.845Z,90.00
2018-01-18T11:26:36.180Z,89.80
2018-01-18T11:29:03.706Z,89.70
2018-01-18T11:31:31.289Z,90.00
2018-01-18T11:33:58.831Z,90.30
2018-01-18T11:36:26.415Z,90.10
2018-01-18T11:38:53.952Z,90.20
2018-01-18T11:41:21.523Z,90.20
2018-01-18T11:43:49.061Z,90.70
2018-01-18T11:46:16.668Z,90.60
2018-01-18T11:48:44.203Z,90.60
2018-01-18T11:51:11.861Z,90.80
2018-01-18T11:53:39.387Z,90.20
2018-01-18T11:56:06.968Z,90.60
2018-01-18T11:58:34.500Z,90.70
2018-01-18T12:01:02.844Z,90.60
2018-01-18T12:03:30.387Z,90.60
2018-01-18T12:05:57.960Z,90.30
2018-01-18T12:08:25.489Z,90.80
2018-01-18T12:10:53.069Z,90.70
2018-01-18T12:13:20.608Z,90.30
2018-01-18T12:15:48.183Z,90.20
2018-01-18T12:18:15.720Z,90.50
2018-01-18T12:20:43.308Z,90.40
2018-01-18T12:23:10.835Z,90.30
2018-01-18T12:25:38.402Z,90.40
2018-01-18T12:28:05.944Z,90.00
2018-01-18T12:30:33.521Z,90.30
2018-01-18T12:33:01.056Z,89.50
2018-01-18T12:35:29.399Z,87.40
2018-01-18T12:37:56.939Z,87.40
2018-01-18T12:40:24.515Z,86.70
2018-01-18T12:42:52.068Z,86.40
2018-01-18T12:45:19.642Z,87.10
2018-01-18T12:47:47.180Z,86.90
2018-01-18T12:50:14.763Z,88.10
2018-01-18T12:52:42.298Z,89.50
2018-01-18T12:55:09.873Z,89.60
2018-01-18T12:57:37.432Z,89.60
2018-01-18T13:00:05.011Z,88.80
2018-01-18T13:02:32.551Z,88.50
2018-01-18T13:05:00.134Z,88.20
2018-01-18T13:07:28.433Z,88.60
2018-01-18T13:09:56.013Z,87.90
2018-01-18T13:12:23.551Z,88.70
2018-01-18T13:14:51.135Z,88.00
2018-01-18T13:17:18.666Z,88.30
2018-01-18T13:19:47.010Z,89.10
2018-01-18T13:22:14.540Z,89.00
2018-01-18T13:24:42.115Z,89.50
2018-01-18T13:27:09.647Z,89.70
2018-01-18T13:29:37.259Z,90.20
2018-01-18T13:32:04.785Z,89.60
2018-01-18T13:34:32.367Z,90.00
2018-01-18T13:36:59.895Z,89.40
2018-01-18T13:39:27.471Z,90.40
2018-01-18T13:41:55.004Z,89.80
2018-01-18T13:44:22.591Z,89.80
2018-01-18T13:46:50.133Z,90.30
2018-01-18T13:49:17.711Z,90.10
2018-01-18T13:51:45.240Z,90.40
2018-01-18T13:54:12.815Z,90.20
2018-01-18T13:56:40.356Z,90.00
2018-01-18T13:59:07.932Z,89.70
2018-01-18T14:01:35.474Z,90.20
2018-01-18T14:04:03.058Z,90.30
2018-01-18T14:06:30.593Z,90.40
2018-01-18T14:08:58.170Z,90.40
2018-01-18T14:11:25.708Z,90.30
2018-01-18T14:13:53.290Z,90.60
2018-01-18T14:16:20.833Z,89.80
2018-01-18T14:18:48.407Z,89.70
2018-01-18T14:21:15.940Z,90.00
2018-01-18T14:23:44.280Z,90.50
2018-01-18T14:26:11.816Z,90.50
2018-01-18T14:28:39.392Z,89.90
2018-01-18T14:31:06.929Z,90.00
2018-01-18T14:33:34.520Z,89.40
2018-01-18T14:36:02.061Z,89.50
2018-01-18T14:38:29.646Z,90.40
2018-01-18T14:40:57.217Z,90.00
2018-01-18T14:43:24.784Z,90.20
2018-01-18T14:45:53.089Z,89.60
2018-01-18T14:48:20.667Z,89.40
2018-01-18T14:50:48.206Z,90.10
2018-01-18T14:53:15.783Z,89.10
2018-01-18T14:55:43.318Z,89.50
2018-01-18T14:58:11.655Z,89.60
2018-01-18T15:00:40.708Z,89.30
2018-01-18T15:03:08.290Z,89.20
2018-01-18T15:05:35.832Z,89.10
2018-01-18T15:08:03.411Z,89.70
2018-01-18T15:10:30.953Z,89.10
2018-01-18T15:12:58.527Z,89.90
2018-01-18T15:15:26.066Z,89.40
2018-01-18T15:17:53.645Z,89.20
2018-01-18T15:20:21.174Z,89.20
2018-01-18T15:22:48.754Z,87.40
2018-01-18T15:25:16.302Z,84.30
2018-01-18T15:27:43.870Z,82.30
2018-01-18T15:30:11.407Z,78.10
2018-01-18T15:32:39.083Z,76.30
2018-01-18T15:35:06.661Z,75.00
2018-01-18T15:37:34.444Z,73.60
2018-01-18T15:40:02.147Z,73.30
2018-01-18T15:42:30.560Z,71.50
2018-01-18T15:44:58.233Z,71.40
2018-01-18T15:47:25.806Z,70.90
2018-01-18T15:49:53.340Z,70.20
2018-01-18T15:52:20.988Z,69.60
2018-01-18T15:54:48.529Z,69.20
2018-01-18T15:57:16.871Z,68.60
2018-01-18T15:59:44.412Z,68.60
2018-01-18T16:02:11.992Z,68.80
2018-01-18T16:04:39.524Z,68.50
2018-01-18T16:07:07.104Z,68.00
2018-01-18T16:09:34.633Z,68.90
2018-01-18T16:12:02.173Z,67.80
2018-01-18T16:14:29.759Z,67.60
2018-01-18T16:16:57.294Z,68.10
2018-01-18T16:19:24.873Z,67.90
2018-01-18T16:21:52.432Z,67.70
2018-01-18T16:24:20.004Z,67.50
2018-01-18T16:26:47.550Z,67.70
2018-01-18T16:29:15.131Z,67.70
2018-01-18T16:31:42.669Z,67.70
2018-01-18T16:34:10.253Z,68.50
2018-01-18T16:36:37.900Z,68.90
2018-01-18T16:39:05.474Z,69.80
2018-01-18T16:41:33.001Z,70.20
2018-01-18T16:44:00.577Z,70.70
2018-01-18T16:46:28.110Z,70.60
2018-01-18T16:48:56.453Z,70.40
2018-01-18T16:51:23.997Z,70.40
2018-01-18T16:53:51.580Z,70.60
2018-01-18T16:56:19.875Z,70.60
2018-01-18T16:58:48.212Z,70.20
2018-01-18T17:01:17.104Z,70.20
2018-01-18T17:03:44.742Z,70.20
2018-01-18T17:06:12.275Z,70.30
2018-01-18T17:08:40.620Z,70.50
2018-01-18T17:11:08.147Z,70.50
2018-01-18T17:13:35.722Z,70.60
2018-01-18T17:16:03.260Z,70.60
2018-01-18T17:18:30.835Z,70.80
2018-01-18T17:20:58.363Z,70.90
2018-01-18T17:23:25.932Z,71.10
2018-01-18T17:25:53.458Z,71.00
2018-01-18T17:28:21.805Z,70.80
2018-01-18T17:30:49.335Z,70.70
2018-01-18T17:33:16.911Z,70.80
2018-01-18T17:35:44.454Z,70.90
2018-01-18T17:38:12.033Z,70.90
2018-01-18T17:40:39.565Z,71.10
2018-01-18T17:43:07.160Z,71.30
2018-01-18T17:45:34.694Z,71.10
2018-01-18T17:48:02.267Z,71.10
2018-01-18T17:50:29.815Z,71.80
2018-01-18T17:52:57.404Z,72.10
2018-01-18T17:55:24.940Z,72.30
2018-01-18T17:57:52.512Z,73.10
2018-01-18T18:00:20.044Z,73.20
2018-01-18T18:02:47.620Z,73.50
2018-01-18T18:05:15.160Z,73.60
2018-01-18T18:07:42.742Z,73.60
2018-01-18T18:10:10.284Z,73.80
2018-01-18T18:12:37.857Z,74.10
2018-01-18T18:15:05.400Z,74.30
2018-01-18T18:17:32.979Z,74.60
2018-01-18T18:20:00.531Z,74.80
2018-01-18T18:22:28.109Z,75.00
2018-01-18T18:24:55.637Z,75.20
2018-01-18T18:27:23.215Z,75.30
2018-01-18T18:29:50.747Z,75.50
2018-01-18T18:32:19.278Z,75.60
2018-01-18T18:34:46.816Z,75.90
2018-01-18T18:37:14.387Z,75.90
2018-01-18T18:39:41.927Z,76.10
2018-01-18T18:42:09.503Z,76.20
2018-01-18T18:44:37.042Z,76.40
2018-01-18T18:47:04.617Z,76.40
2018-01-18T18:49:32.190Z,76.60
2018-01-18T18:51:59.771Z,76.60
2018-01-18T18:54:27.308Z,77.00
2018-01-18T18:56:54.885Z,77.10
2018-01-18T18:59:22.425Z,77.00
2018-01-18T19:01:50.073Z,77.10
2018-01-18T19:04:17.606Z,77.20
2018-01-18T19:06:45.192Z,77.30
2018-01-18T19:09:12.728Z,77.50
2018-01-18T19:11:40.304Z,77.70
2018-01-18T19:14:07.850Z,77.60
2018-01-18T19:16:35.441Z,77.90
2018-01-18T19:19:03.059Z,78.00
2018-01-18T19:21:30.674Z,78.00
2018-01-18T19:23:58.226Z,78.10
2018-01-18T19:26:25.808Z,79.30
2018-01-18T19:28:53.334Z,79.50
2018-01-18T19:31:20.908Z,79.50
2018-01-18T19:33:48.432Z,79.60
2018-01-18T19:36:16.038Z,79.70
2018-01-18T19:38:43.624Z,79.90
2018-01-18T19:41:11.172Z,79.80
2018-01-18T19:43:38.716Z,79.90
2018-01-18T19:46:06.339Z,80.00
2018-01-18T19:48:33.919Z,80.00
2018-01-18T19:51:01.531Z,80.10
2018-01-18T19:53:29.140Z,80.10
2018-01-18T19:55:56.707Z,80.10
2018-01-18T19:58:24.297Z,80.20
2018-01-18T20:00:51.920Z,80.30
2018-01-18T20:03:19.503Z,80.10
2018-01-18T20:05:47.083Z,80.10
2018-01-18T20:08:14.621Z,80.30
2018-01-18T20:10:42.233Z,80.60
2018-01-18T20:13:09.814Z,80.30
2018-01-18T20:15:37.436Z,80.40
2018-01-18T20:18:05.771Z,80.10
2018-01-18T20:20:33.340Z,80.10
2018-01-18T20:23:00.874Z,80.10
2018-01-18T20:25:28.666Z,80.20
2018-01-18T20:27:56.260Z,80.10
2018-01-18T20:30:23.910Z,80.20
2018-01-18T20:32:51.506Z,80.20
2018-01-18T20:35:19.075Z,80.00
2018-01-18T20:37:46.650Z,79.90
2018-01-18T20:40:14.227Z,80.10
2018-01-18T20:42:41.802Z,81.00
2018-01-18T20:45:10.144Z,80.40
2018-01-18T20:47:37.732Z,80.50
2018-01-18T20:50:05.360Z,80.30
2018-01-18T20:52:32.892Z,80.30
2018-01-18T20:55:01.227Z,80.30
2018-01-18T20:57:28.763Z,80.30
2018-01-18T20:59:56.376Z,80.30
2018-01-18T21:02:23.991Z,80.40
2018-01-18T21:04:51.601Z,80.60
2018-01-18T21:07:19.901Z,80.60
2018-01-18T21:09:47.471Z,81.30
2018-01-18T21:12:15.181Z,80.70
2018-01-18T21:14:42.816Z,80.80
2018-01-18T21:17:10.320Z,81.00
2018-01-18T21:19:38.709Z,81.00
2018-01-18T21:22:07.063Z,81.00
2018-01-18T21:24:34.680Z,81.00
2018-01-18T21:27:02.253Z,81.00
2018-01-18T21:29:29.866Z,81.80
2018-01-18T21:31:58.214Z,81.00
2018-01-18T21:34:25.791Z,81.00
2018-01-18T21:36:53.385Z,81.10
2018-01-18T21:39:20.992Z,81.10
2018-01-18T21:41:48.568Z,81.30
2018-01-18T21:44:16.192Z,81.20
2018-01-18T21:46:43.740Z,81.20
2018-01-18T21:49:11.316Z,81.40
2018-01-18T21:51:38.870Z,81.30
2018-01-18T21:54:06.457Z,81.20
2018-01-18T21:56:33.992Z,81.10
2018-01-18T21:59:01.609Z,81.20
2018-01-18T22:01:30.008Z,81.40
2018-01-18T22:03:57.586Z,81.50
2018-01-18T22:06:25.160Z,81.40
2018-01-18T22:08:52.731Z,81.30
2018-01-18T22:11:20.308Z,81.20
2018-01-18T22:13:47.895Z,81.30
2018-01-18T22:16:15.436Z,81.40
2018-01-18T22:18:43.021Z,81.30
2018-01-18T22:21:10.596Z,80.70
2018-01-18T22:23:38.203Z,81.30
2018-01-18T22:26:05.739Z,81.40
2018-01-18T22:28:34.107Z,81.60
2018-01-18T22:31:01.768Z,81.70
2018-01-18T22:33:29.374Z,81.70
2018-01-18T22:35:56.945Z,81.70
2018-01-18T22:38:25.301Z,81.80
2018-01-18T22:40:52.846Z,81.70
2018-01-18T22:43:20.424Z,81.80
2018-01-18T22:45:47.951Z,81.90
2018-01-18T22:48:15.522Z,82.00
2018-01-18T22:50:43.060Z,81.70
2018-01-18T22:53:10.640Z,81.60
2018-01-18T22:55:38.175Z,81.80
2018-01-18T22:58:05.748Z,81.80
2018-01-18T23:00:33.280Z,81.90
2018-01-18T23:03:00.874Z,82.00
2018-01-18T23:05:28.412Z,82.00
2018-01-18T23:07:55.991Z,82.10
2018-01-18T23:10:23.529Z,82.00
2018-01-18T23:12:51.114Z,82.10
2018-01-18T23:15:18.652Z,82.20
2018-01-18T23:17:46.221Z,82.20
2018-01-18T23:20:13.759Z,82.30
2018-01-18T23:22:41.338Z,82.30
2018-01-18T23:25:08.866Z,82.30
2018-01-18T23:27:36.449Z,82.40
2018-01-18T23:30:04.415Z,82.50
2018-01-18T23:32:31.991Z,82.60
2018-01-18T23:34:59.515Z,82.70
2018-01-18T23:37:27.850Z,83.00
2018-01-18T23:39:55.376Z,82.90
2018-01-18T23:42:22.945Z,82.90
2018-01-18T23:44:50.481Z,83.00
2018-01-18T23:47:18.061Z,83.00
2018-01-18T23:49:45.592Z,83.80
2018-01-18T23:52:13.934Z,84.00
2018-01-18T23:54:41.472Z,83.10
2018-01-18T23:57:09.053Z,83.30
2018-01-18T23:59:36.597Z,83.30
